Time;durP1;ratioP1;P1;durP2;ratioP2;P2;SDS_P1;SDS_P2;PMS_P1;PMS_P2;Temp;Humidity;BMP_temperature;BMP_pressure;BME280_temperature;BME280_humidity;BME280_pressure;Samples;Min_cycle;Max_cycle;Signal;HPM_P1;HPM_P2
2023/11/20 00:02:51;;;;;;;15.47;3.00;;;;;11.00;100546.00;;;;10308474;28;20335;-71
2023/11/20 00:07:52;;;;;;;10.47;2.43;;;;;11.00;100538.00;;;;10307609;28;20251;-70
2023/11/20 00:12:53;;;;;;;14.97;3.50;;;;;10.90;100542.00;;;;10320154;28;20274;-70
2023/11/20 00:17:55;;;;;;;19.90;3.57;;;;;10.90;100538.00;;;;10306437;28;20786;-73
2023/11/20 00:22:56;;;;;;;15.20;2.77;;;;;11.00;100523.00;;;;10286782;28;20275;-73
2023/11/20 00:27:57;;;;;;;14.67;2.90;;;;;10.90;100520.00;;;;10292522;28;20310;-73
2023/11/20 00:32:58;;;;;;;11.00;2.30;;;;;10.90;100520.00;;;;10305994;28;20359;-74
2023/11/20 00:38:00;;;;;;;9.00;2.67;;;;;10.80;100520.00;;;;10291309;28;20258;-74
2023/11/20 00:43:01;;;;;;;11.80;2.90;;;;;10.80;100514.00;;;;10310670;28;20866;-73
2023/11/20 00:48:03;;;;;;;12.60;2.67;;;;;10.60;100510.00;;;;10297801;28;20255;-73
2023/11/20 00:53:04;;;;;;;15.53;2.97;;;;;10.50;100528.00;;;;10298696;28;20845;-73
2023/11/20 00:58:07;;;;;;;11.93;3.17;;;;;10.50;100541.00;;;;10281720;28;20223;-73
2023/11/20 01:03:08;;;;;;;13.73;2.67;;;;;10.40;100537.00;;;;10280758;28;20212;-73
2023/11/20 01:08:11;;;;;;;16.53;3.87;;;;;10.40;100539.00;;;;10316328;28;20220;-73
2023/11/20 01:13:12;;;;;;;10.93;2.87;;;;;10.40;100540.00;;;;10318534;28;20224;-73
2023/11/20 01:18:17;;;;;;;13.67;3.10;;;;;10.40;100540.00;;;;10314007;28;20677;-73
2023/11/20 01:23:18;;;;;;;9.87;2.67;;;;;10.50;100536.00;;;;10311032;28;20274;-73
2023/11/20 01:28:19;;;;;;;13.00;3.23;;;;;10.60;100540.00;;;;10302013;28;20221;-73
2023/11/20 01:33:20;;;;;;;11.17;2.40;;;;;10.60;100544.00;;;;10311054;28;20330;-73
2023/11/20 01:38:21;;;;;;;11.10;2.17;;;;;10.60;100555.00;;;;10311988;28;20215;-74
2023/11/20 01:43:23;;;;;;;10.87;2.67;;;;;10.70;100545.00;;;;10311908;28;20262;-73
2023/11/20 01:48:24;;;;;;;7.47;1.77;;;;;10.70;100545.00;;;;10326734;28;20892;-73
2023/11/20 01:53:27;;;;;;;10.43;3.00;;;;;10.70;100545.00;;;;10314999;28;20258;-73
2023/11/20 01:58:28;;;;;;;11.07;2.70;;;;;10.70;100533.00;;;;10307694;28;20307;-73
2023/11/20 02:03:32;;;;;;;14.83;3.03;;;;;10.70;100530.00;;;;10326612;28;20231;-73
2023/11/20 02:08:33;;;;;;;15.40;3.10;;;;;10.70;100545.00;;;;10312660;28;20224;-73
2023/11/20 02:13:34;;;;;;;13.77;3.13;;;;;10.60;100537.00;;;;10313155;28;20258;-73
2023/11/20 02:18:36;;;;;;;17.30;3.10;;;;;10.50;100536.00;;;;10307269;28;20219;-74
2023/11/20 02:23:37;;;;;;;13.13;3.20;;;;;10.40;100526.00;;;;10328687;28;20216;-74
2023/11/20 02:28:41;;;;;;;15.07;3.40;;;;;10.40;100532.00;;;;10317093;28;21023;-74
2023/11/20 02:33:42;;;;;;;15.63;2.87;;;;;10.40;100533.00;;;;10310973;28;20777;-73
2023/11/20 02:38:43;;;;;;;15.90;3.10;;;;;10.40;100534.00;;;;10313626;28;20215;-72
2023/11/20 02:43:45;;;;;;;17.93;3.47;;;;;10.30;100517.00;;;;10307428;28;20235;-73
2023/11/20 02:48:46;;;;;;;17.80;3.07;;;;;10.20;100527.00;;;;10323889;28;20235;-72
2023/11/20 02:53:47;;;;;;;13.40;2.63;;;;;10.10;100518.00;;;;10317289;28;20673;-72
2023/11/20 02:58:48;;;;;;;17.73;3.60;;;;;10.00;100518.00;;;;10312005;28;20232;-72
2023/11/20 03:03:49;;;;;;;15.33;2.73;;;;;9.90;100520.00;;;;10319412;28;20255;-73
2023/11/20 03:08:51;;;;;;;11.37;2.53;;;;;9.80;100524.00;;;;10304836;28;20231;-72
2023/11/20 03:13:52;;;;;;;15.67;2.70;;;;;9.80;100522.00;;;;10303501;28;20910;-72
2023/11/20 03:18:53;;;;;;;14.07;2.70;;;;;9.80;100525.00;;;;10311161;28;20911;-71
2023/11/20 03:23:54;;;;;;;22.47;3.40;;;;;9.70;100519.00;;;;10313957;28;20231;-72
2023/11/20 03:28:56;;;;;;;26.20;4.70;;;;;9.70;100525.00;;;;10327564;28;20234;-72
2023/11/20 03:33:57;;;;;;;15.77;4.10;;;;;9.70;100515.00;;;;10316576;28;20311;-71
2023/11/20 03:38:59;;;;;;;18.10;3.87;;;;;9.70;100519.00;;;;10313466;28;20608;-71
2023/11/20 03:44:01;;;;;;;16.43;3.73;;;;;9.70;100518.00;;;;10312746;28;20228;-73
2023/11/20 03:49:02;;;;;;;18.27;3.60;;;;;9.80;100510.00;;;;10311055;28;20318;-78
2023/11/20 03:54:04;;;;;;;18.97;4.27;;;;;9.90;100508.00;;;;10326994;28;20231;-78
2023/11/20 03:59:05;;;;;;;20.70;4.00;;;;;9.80;100521.00;;;;10310691;28;20958;-78
2023/11/20 04:04:08;;;;;;;19.10;3.80;;;;;9.80;100517.00;;;;10323720;28;21234;-78
2023/11/20 04:09:09;;;;;;;22.83;4.27;;;;;9.80;100523.00;;;;10329999;28;20220;-78
2023/11/20 04:14:10;;;;;;;16.27;3.47;;;;;9.80;100521.00;;;;10317474;28;20255;-78
2023/11/20 04:19:13;;;;;;;20.30;4.60;;;;;9.70;100521.00;;;;10296805;28;20322;-78
2023/11/20 04:24:14;;;;;;;14.47;3.17;;;;;9.70;100525.00;;;;10319475;28;20232;-78
2023/11/20 04:29:16;;;;;;;15.80;4.00;;;;;9.60;100521.00;;;;10318305;28;20737;-78
2023/11/20 04:34:17;;;;;;;15.57;4.03;;;;;9.60;100519.00;;;;10335928;28;20932;-78
2023/11/20 04:39:18;;;;;;;16.80;3.60;;;;;9.50;100517.00;;;;10318741;28;20306;-79
2023/11/20 04:44:19;;;;;;;26.73;4.63;;;;;9.50;100518.00;;;;10312804;28;20228;-78
2023/11/20 04:49:21;;;;;;;23.10;5.40;;;;;9.50;100520.00;;;;10317575;28;20243;-77
2023/11/20 04:54:22;;;;;;;16.90;5.27;;;;;9.40;100523.00;;;;10310321;28;20814;-71
2023/11/20 04:59:23;;;;;;;16.47;4.43;;;;;9.40;100515.00;;;;10316183;28;20278;-71
2023/11/20 05:04:24;;;;;;;20.13;3.70;;;;;9.40;100514.00;;;;10318765;28;20678;-71
2023/11/20 05:09:25;;;;;;;25.90;3.43;;;;;9.40;100510.00;;;;10324567;28;20235;-71
2023/11/20 05:14:27;;;;;;;13.47;2.97;;;;;9.30;100502.00;;;;10311455;28;20302;-72
2023/11/20 05:19:28;;;;;;;16.60;2.73;;;;;9.40;100501.00;;;;10315769;28;20232;-73
2023/11/20 05:24:29;;;;;;;24.10;4.73;;;;;9.40;100502.00;;;;10304659;28;20289;-71
2023/11/20 05:29:30;;;;;;;14.00;3.67;;;;;9.50;100497.00;;;;10310497;28;20319;-72
2023/11/20 05:34:33;;;;;;;18.97;4.10;;;;;9.50;100474.00;;;;10312595;28;20227;-71
2023/11/20 05:39:34;;;;;;;15.23;4.30;;;;;9.50;100483.00;;;;10311956;28;20319;-72
2023/11/20 05:44:35;;;;;;;25.53;5.13;;;;;9.40;100499.00;;;;10315146;28;20318;-72
2023/11/20 05:49:36;;;;;;;21.03;4.87;;;;;9.40;100488.00;;;;10312294;28;20231;-71
2023/11/20 05:54:37;;;;;;;31.47;5.03;;;;;9.40;100510.00;;;;10313715;28;20314;-71
2023/11/20 05:59:39;;;;;;;20.20;4.60;;;;;9.50;100501.00;;;;10301932;28;20220;-71
2023/11/20 06:04:40;;;;;;;15.43;3.50;;;;;9.60;100522.00;;;;10312028;28;20211;-77
2023/11/20 06:09:42;;;;;;;23.43;4.20;;;;;9.70;100517.00;;;;10317592;28;20220;-78
2023/11/20 06:14:43;;;;;;;19.57;3.50;;;;;9.70;100512.00;;;;10314458;28;20223;-78
2023/11/20 06:19:44;;;;;;;20.60;3.57;;;;;9.80;100510.00;;;;10313917;28;20239;-78
2023/11/20 06:24:45;;;;;;;19.47;3.93;;;;;9.90;100505.00;;;;10308908;28;20339;-76
2023/11/20 06:29:47;;;;;;;18.30;3.07;;;;;9.90;100506.00;;;;10313247;28;20250;-78
2023/11/20 06:34:48;;;;;;;18.60;3.47;;;;;9.90;100520.00;;;;10314439;28;20948;-78
2023/11/20 06:39:49;;;;;;;19.13;3.40;;;;;9.90;100521.00;;;;10315472;28;20251;-78
2023/11/20 06:44:50;;;;;;;16.27;3.03;;;;;9.90;100507.00;;;;10303377;28;20240;-78
2023/11/20 06:49:51;;;;;;;16.30;3.70;;;;;10.00;100509.00;;;;10310195;28;20299;-78
2023/11/20 06:54:54;;;;;;;29.03;9.83;;;;;10.00;100519.00;;;;10314420;28;20625;-77
2023/11/20 06:59:55;;;;;;;23.20;4.57;;;;;10.10;100528.00;;;;10316796;28;20230;-79
2023/11/20 07:04:58;;;;;;;16.67;3.90;;;;;10.10;100521.00;;;;10325352;28;20227;-75
2023/11/20 07:09:59;;;;;;;16.97;4.73;;;;;10.10;100530.00;;;;10318059;28;20220;-78
2023/11/20 07:15:01;;;;;;;15.73;4.00;;;;;10.10;100517.00;;;;10322136;28;20258;-74
2023/11/20 07:20:02;;;;;;;19.33;3.50;;;;;10.10;100524.00;;;;10314141;28;20224;-73
2023/11/20 07:25:04;;;;;;;15.47;4.47;;;;;10.10;100540.00;;;;10323437;28;20242;-74
2023/11/20 07:30:09;;;;;;;15.53;4.00;;;;;10.20;100538.00;;;;10315867;28;20310;-74
2023/11/20 07:35:12;;;;;;;18.97;4.43;;;;;10.20;100546.00;;;;10316977;28;20657;-74
2023/11/20 07:40:14;;;;;;;12.93;3.27;;;;;10.20;100546.00;;;;10331437;28;20215;-73
2023/11/20 07:45:15;;;;;;;10.43;2.90;;;;;10.30;100544.00;;;;10322148;28;20721;-74
2023/11/20 07:50:16;;;;;;;11.73;3.10;;;;;10.40;100547.00;;;;10312389;28;20820;-74
2023/11/20 07:55:18;;;;;;;9.27;2.43;;;;;10.40;100548.00;;;;10318370;28;20223;-73
2023/11/20 08:00:19;;;;;;;11.67;2.50;;;;;10.40;100541.00;;;;10303584;28;20720;-74
2023/11/20 08:05:20;;;;;;;9.63;2.03;;;;;10.40;100546.00;;;;10301325;28;20257;-74
2023/11/20 08:10:22;;;;;;;8.10;2.53;;;;;10.40;100545.00;;;;10311538;28;20966;-74
2023/11/20 08:15:23;;;;;;;11.43;2.90;;;;;10.30;100545.00;;;;10310180;28;20890;-74
2023/11/20 08:20:24;;;;;;;10.73;2.17;;;;;10.20;100554.00;;;;10295502;28;20244;-74
2023/11/20 08:25:25;;;;;;;9.13;2.17;;;;;10.10;100555.00;;;;10318343;28;20275;-73
2023/11/20 08:30:27;;;;;;;8.73;2.07;;;;;10.00;100552.00;;;;10313201;28;20220;-73
2023/11/20 08:35:28;;;;;;;14.70;6.33;;;;;10.10;100544.00;;;;10317124;28;20223;-73
2023/11/20 08:40:29;;;;;;;10.00;3.50;;;;;10.20;100549.00;;;;10310974;28;20220;-74
2023/11/20 08:45:31;;;;;;;10.40;2.90;;;;;10.30;100527.00;;;;10309554;28;20802;-74
2023/11/20 08:50:33;;;;;;;14.00;3.63;;;;;10.50;100532.00;;;;10313626;28;20255;-74
2023/11/20 08:55:35;;;;;;;8.77;3.20;;;;;10.70;100521.00;;;;10330511;28;20255;-74
2023/11/20 09:00:36;;;;;;;13.43;3.43;;;;;10.80;100526.00;;;;10314579;28;20229;-75
2023/11/20 09:05:37;;;;;;;14.67;4.43;;;;;10.80;100524.00;;;;10318450;28;20228;-75
2023/11/20 09:10:39;;;;;;;15.07;3.20;;;;;10.70;100527.00;;;;10312081;28;20894;-75
2023/11/20 09:15:40;;;;;;;14.33;4.53;;;;;11.00;100516.00;;;;10297478;28;20220;-75
2023/11/20 09:20:41;;;;;;;14.37;3.17;;;;;11.00;100509.00;;;;10307399;28;20228;-75
2023/11/20 09:25:43;;;;;;;9.50;3.20;;;;;11.00;100510.00;;;;10294582;28;20958;-75
2023/11/20 09:30:44;;;;;;;9.60;3.13;;;;;11.30;100505.00;;;;10292096;28;20231;-75
2023/11/20 09:35:45;;;;;;;11.40;3.22;;;;;11.70;100501.00;;;;10291140;28;20799;-73
2023/11/20 09:40:46;;;;;;;13.82;3.92;;;;;11.60;100494.00;;;;10294072;28;20274;-73
2023/11/20 09:45:51;;;;;;;11.05;3.08;;;;;11.40;100486.00;;;;10310508;28;20285;-73
2023/11/20 09:50:58;;;;;;;16.92;4.72;;;;;12.20;100483.00;;;;10301353;28;20832;-73
2023/11/20 09:56:13;;;;;;;13.95;3.10;;;;;12.50;100483.00;;;;10297735;28;20227;-74
2023/11/20 10:01:15;;;;;;;13.55;3.17;;;;;13.00;100481.00;;;;10324600;28;20307;-73
2023/11/20 10:06:21;;;;;;;15.90;4.60;;;;;13.40;100467.00;;;;10316990;28;20277;-74
2023/11/20 10:11:23;;;;;;;6.85;2.40;;;;;13.60;100469.00;;;;10309899;28;20274;-74
2023/11/20 10:16:26;;;;;;;12.07;3.08;;;;;13.70;100468.00;;;;10308173;28;20998;-74
2023/11/20 10:21:29;;;;;;;10.82;2.55;;;;;13.30;100473.00;;;;10307287;28;20230;-74
2023/11/20 10:26:30;;;;;;;8.73;2.30;;;;;13.10;100459.00;;;;10307921;28;20797;-74
2023/11/20 10:31:31;;;;;;;11.48;2.60;;;;;12.70;100460.00;;;;10306818;28;20678;-74
2023/11/20 10:36:34;;;;;;;14.10;2.95;;;;;12.40;100459.00;;;;10327968;28;20219;-73
2023/11/20 10:41:42;;;;;;;8.80;2.45;;;;;12.30;100453.00;;;;10292983;28;20316;-74
2023/11/20 10:46:43;;;;;;;7.00;2.35;;;;;12.10;100449.00;;;;10313686;28;20227;-78
2023/11/20 10:51:52;;;;;;;10.07;2.40;;;;;12.10;100444.00;;;;10303731;28;20236;-78
2023/11/20 10:57:00;;;;;;;13.63;3.20;;;;;12.40;100434.00;;;;10315151;28;20237;-78
2023/11/20 11:02:06;;;;;;;12.27;3.13;;;;;12.30;100441.00;;;;10309889;28;20282;-78
2023/11/20 11:07:11;;;;;;;11.52;2.45;;;;;12.00;100439.00;;;;10316276;28;20291;-78
2023/11/20 11:12:14;;;;;;;11.52;3.25;;;;;12.00;100428.00;;;;10312192;28;20224;-78
2023/11/20 11:17:22;;;;;;;10.40;2.75;;;;;12.30;100425.00;;;;10321367;28;20679;-78
2023/11/20 11:22:53;;;;;;;7.50;2.28;;;;;12.40;100414.00;;;;10313358;28;20237;-78
2023/11/20 11:27:59;;;;;;;10.47;2.50;;;;;12.50;100402.00;;;;10309924;28;20278;-79
2023/11/20 11:33:42;;;;;;;9.77;2.73;;;;;12.50;100413.00;;;;10308460;28;20334;-79
2023/11/20 11:39:30;;;;;;;7.47;2.03;;;;;12.30;100406.00;;;;10323447;28;20310;-78
2023/11/20 11:44:58;;;;;;;12.15;3.00;;;;;12.10;100411.00;;;;10294788;28;20326;-78
2023/11/20 11:50:00;;;;;;;12.00;2.60;;;;;12.10;100402.00;;;;10313622;28;20238;-77
2023/11/20 11:55:15;;;;;;;11.82;2.95;;;;;12.20;100391.00;;;;10316444;28;20740;-78
2023/11/20 12:00:17;;;;;;;12.73;3.03;;;;;12.20;100390.00;;;;10300972;28;21119;-78
2023/11/20 12:05:19;;;;;;;11.73;2.50;;;;;12.20;100378.00;;;;10337400;28;20228;-79
2023/11/20 12:10:50;;;;;;;8.98;2.83;;;;;12.10;100377.00;;;;10315114;28;20228;-78
2023/11/20 12:15:52;;;;;;;12.95;2.50;;;;;11.90;100364.00;;;;10316684;28;20693;-78
2023/11/20 12:20:57;;;;;;;8.40;2.50;;;;;12.00;100364.00;;;;10297147;28;20276;-78
2023/11/20 12:26:01;;;;;;;8.55;2.13;;;;;12.00;100344.00;;;;10331556;28;20310;-78
2023/11/20 12:31:20;;;;;;;12.60;2.40;;;;;12.20;100342.00;;;;10315127;28;20234;-78
2023/11/20 12:36:22;;;;;;;11.95;2.30;;;;;12.20;100345.00;;;;10313609;28;20225;-78
2023/11/20 12:41:28;;;;;;;9.52;2.70;;;;;12.10;100330.00;;;;10317045;28;20309;-77
2023/11/20 12:46:29;;;;;;;12.90;2.53;;;;;12.10;100314.00;;;;10315473;28;20220;-77
2023/11/20 12:51:31;;;;;;;13.73;2.47;;;;;12.10;100330.00;;;;10313252;28;20236;-78
2023/11/20 12:56:33;;;;;;;10.25;2.50;;;;;11.90;100312.00;;;;10325008;28;20815;-78
2023/11/20 13:01:34;;;;;;;13.45;2.70;;;;;11.60;100316.00;;;;10299676;28;20231;-79
2023/11/20 13:06:38;;;;;;;11.88;2.38;;;;;11.40;100302.00;;;;10315000;28;20299;-75
2023/11/20 13:11:39;;;;;;;9.53;2.37;;;;;11.10;100302.00;;;;10324927;28;20708;-74
2023/11/20 13:16:40;;;;;;;9.30;2.22;;;;;10.80;100307.00;;;;10315866;28;20310;-74
2023/11/20 13:21:42;;;;;;;6.97;2.70;;;;;10.60;100300.00;;;;10309956;28;20230;-74
2023/11/20 13:26:43;;;;;;;12.70;3.17;;;;;10.30;100291.00;;;;10306655;28;20220;-74
2023/11/20 13:31:44;;;;;;;14.67;2.70;;;;;10.10;100285.00;;;;10307332;28;20219;-74
2023/11/20 13:36:47;;;;;;;9.23;3.07;;;;;10.00;100288.00;;;;10317050;28;20317;-74
2023/11/20 13:41:50;;;;;;;11.83;2.70;;;;;10.00;100277.00;;;;10314806;28;20285;-74
2023/11/20 13:46:52;;;;;;;9.43;2.47;;;;;10.00;100277.00;;;;10297734;28;20237;-74
2023/11/20 13:51:54;;;;;;;7.93;2.07;;;;;10.00;100265.00;;;;10310882;28;20232;-75
2023/11/20 13:56:55;;;;;;;7.97;1.77;;;;;9.90;100264.00;;;;10324033;28;20236;-75
2023/11/20 14:01:56;;;;;;;6.23;1.60;;;;;9.80;100257.00;;;;10309438;28;20836;-73
2023/11/20 14:06:57;;;;;;;6.77;1.60;;;;;9.90;100246.00;;;;10326869;28;20216;-74
2023/11/20 14:11:58;;;;;;;4.30;1.57;;;;;9.90;100237.00;;;;10303577;28;20220;-74
2023/11/20 14:17:00;;;;;;;7.03;2.40;;;;;9.80;100237.00;;;;10304273;28;20300;-74
2023/11/20 14:22:01;;;;;;;6.60;1.83;;;;;9.80;100225.00;;;;10315489;28;20685;-73
2023/11/20 14:27:02;;;;;;;9.23;1.77;;;;;9.70;100225.00;;;;10316779;28;20211;-73
2023/11/20 14:32:04;;;;;;;9.93;2.10;;;;;9.70;100221.00;;;;10311734;28;20278;-73
2023/11/20 14:37:05;;;;;;;9.27;2.23;;;;;9.70;100207.00;;;;10309914;28;20228;-73
2023/11/20 14:42:06;;;;;;;12.20;2.60;;;;;9.60;100202.00;;;;10312690;28;20297;-73
2023/11/20 14:47:07;;;;;;;7.73;2.33;;;;;9.60;100188.00;;;;10326967;28;20224;-74
2023/11/20 14:52:08;;;;;;;7.47;2.43;;;;;9.50;100190.00;;;;10312597;28;20285;-73
2023/11/20 14:57:10;;;;;;;9.07;2.50;;;;;9.50;100180.00;;;;10307776;28;20347;-73
2023/11/20 15:02:11;;;;;;;12.27;2.90;;;;;9.50;100176.00;;;;10304973;28;20688;-73
2023/11/20 15:07:12;;;;;;;5.43;3.00;;;;;9.50;100181.00;;;;10300021;28;20226;-74
2023/11/20 15:12:13;;;;;;;9.73;4.33;;;;;9.50;100172.00;;;;10306847;28;20232;-73
2023/11/20 15:17:15;;;;;;;10.73;2.97;;;;;9.40;100174.00;;;;10303894;28;20281;-73
2023/11/20 15:22:16;;;;;;;9.90;2.50;;;;;9.40;100167.00;;;;10313908;28;20240;-73
2023/11/20 15:27:18;;;;;;;8.00;2.70;;;;;9.40;100165.00;;;;10308278;28;20319;-74
2023/11/20 15:32:19;;;;;;;6.07;2.50;;;;;9.40;100161.00;;;;10325338;28;20234;-73
2023/11/20 15:37:20;;;;;;;5.40;2.80;;;;;9.30;100171.00;;;;10310184;28;20224;-73
2023/11/20 15:42:22;;;;;;;8.47;2.53;;;;;9.30;100158.00;;;;10316953;28;20292;-73
2023/11/20 15:47:23;;;;;;;10.47;3.67;;;;;9.30;100155.00;;;;10313826;28;20346;-73
2023/11/20 15:52:24;;;;;;;7.73;2.33;;;;;9.30;100154.00;;;;10310114;28;20231;-73
2023/11/20 15:57:29;;;;;;;7.83;2.30;;;;;9.30;100151.00;;;;10312361;28;20762;-73
2023/11/20 16:02:30;;;;;;;5.53;2.47;;;;;9.30;100153.00;;;;10287682;28;20251;-73
2023/11/20 16:07:32;;;;;;;9.33;2.80;;;;;9.20;100148.00;;;;10302472;28;21093;-73
2023/11/20 16:12:33;;;;;;;6.93;1.87;;;;;9.20;100147.00;;;;10324479;28;20917;-73
2023/11/20 16:17:35;;;;;;;8.13;2.17;;;;;9.20;100149.00;;;;10306519;28;20212;-73
2023/11/20 16:22:36;;;;;;;11.33;2.97;;;;;9.20;100152.00;;;;10296071;28;20850;-73
2023/11/20 16:27:38;;;;;;;5.87;2.87;;;;;9.20;100151.00;;;;10306763;28;20350;-74
2023/11/20 16:32:39;;;;;;;10.60;2.70;;;;;9.20;100147.00;;;;10323604;28;20811;-73
2023/11/20 16:37:40;;;;;;;9.43;2.63;;;;;9.10;100147.00;;;;10296993;28;20282;-73
2023/11/20 16:42:41;;;;;;;12.30;2.70;;;;;9.10;100136.00;;;;10318232;28;21054;-75
2023/11/20 16:47:43;;;;;;;10.23;3.20;;;;;9.10;100143.00;;;;10316408;28;20293;-73
2023/11/20 16:52:44;;;;;;;11.97;5.70;;;;;9.20;100147.00;;;;10318522;28;20225;-73
2023/11/20 16:57:45;;;;;;;8.33;4.13;;;;;9.20;100153.00;;;;10319440;28;20227;-73
2023/11/20 17:02:46;;;;;;;10.13;5.13;;;;;9.20;100147.00;;;;10312108;28;20682;-73
2023/11/20 17:07:48;;;;;;;13.67;7.30;;;;;9.20;100152.00;;;;10313454;28;20958;-73
2023/11/20 17:12:50;;;;;;;14.57;6.87;;;;;9.20;100154.00;;;;10313216;28;20232;-73
2023/11/20 17:17:51;;;;;;;14.23;7.40;;;;;9.20;100161.00;;;;10303829;28;20263;-73
2023/11/20 17:22:52;;;;;;;14.57;7.43;;;;;9.20;100166.00;;;;10313253;28;20228;-73
2023/11/20 17:27:53;;;;;;;9.67;6.57;;;;;9.20;100177.00;;;;10317160;28;20285;-73
2023/11/20 17:32:57;;;;;;;11.27;7.17;;;;;9.20;100192.00;;;;10295758;28;20918;-73
2023/11/20 17:37:58;;;;;;;13.80;6.77;;;;;9.20;100197.00;;;;10315579;28;20503;-73
2023/11/20 17:42:59;;;;;;;16.80;8.53;;;;;9.20;100198.00;;;;10314467;28;20220;-73
2023/11/20 17:48:00;;;;;;;18.07;8.10;;;;;9.20;100215.00;;;;10313434;28;20314;-74
2023/11/20 17:53:02;;;;;;;12.57;7.30;;;;;9.20;100217.00;;;;10310714;28;20236;-74
2023/11/20 17:58:03;;;;;;;14.83;8.63;;;;;9.20;100216.00;;;;10315840;28;20292;-74
2023/11/20 18:03:05;;;;;;;13.00;8.23;;;;;9.20;100223.00;;;;10322710;28;20882;-74
2023/11/20 18:08:09;;;;;;;17.20;9.70;;;;;9.20;100230.00;;;;10337669;28;20220;-74
2023/11/20 18:13:10;;;;;;;16.10;9.90;;;;;9.10;100246.00;;;;10330284;28;20222;-74
2023/11/20 18:18:11;;;;;;;18.67;10.60;;;;;9.10;100257.00;;;;10310223;28;20216;-74
2023/11/20 18:23:12;;;;;;;17.90;11.43;;;;;9.10;100252.00;;;;10309100;28;20233;-74
2023/11/20 18:28:15;;;;;;;22.63;12.80;;;;;9.00;100262.00;;;;10315444;28;20226;-74
2023/11/20 18:33:16;;;;;;;19.83;14.03;;;;;8.90;100271.00;;;;10317632;28;20810;-74
2023/11/20 18:38:17;;;;;;;21.07;13.03;;;;;8.80;100291.00;;;;10316425;28;20219;-74
2023/11/20 18:43:19;;;;;;;18.67;13.00;;;;;8.80;100293.00;;;;10304392;28;20226;-74
2023/11/20 18:48:20;;;;;;;23.73;14.77;;;;;8.70;100288.00;;;;10311881;28;20319;-74
2023/11/20 18:53:21;;;;;;;24.40;14.17;;;;;8.50;100293.00;;;;10311886;28;20306;-74
2023/11/20 18:58:24;;;;;;;19.93;13.83;;;;;8.40;100299.00;;;;10296929;28;20255;-73
2023/11/20 19:03:25;;;;;;;32.90;18.83;;;;;8.30;100314.00;;;;10318584;28;20664;-74
2023/11/20 19:08:27;;;;;;;28.77;16.23;;;;;8.20;100317.00;;;;10311656;28;20220;-73
2023/11/20 19:13:28;;;;;;;25.23;17.73;;;;;8.10;100325.00;;;;10310146;28;20761;-75
2023/11/20 19:18:29;;;;;;;34.33;17.87;;;;;8.00;100335.00;;;;10309907;28;20224;-74
2023/11/20 19:23:31;;;;;;;26.00;17.53;;;;;7.90;100335.00;;;;10293737;28;20824;-73
2023/11/20 19:28:32;;;;;;;31.50;18.93;;;;;8.00;100350.00;;;;10296397;28;20218;-73
2023/11/20 19:33:33;;;;;;;32.47;20.60;;;;;8.00;100365.00;;;;10318073;28;20251;-75
2023/11/20 19:38:35;;;;;;;32.77;19.60;;;;;8.00;100371.00;;;;10309238;28;20231;-73
2023/11/20 19:43:36;;;;;;;47.43;22.00;;;;;8.00;100383.00;;;;10309507;28;20323;-74
2023/11/20 19:48:38;;;;;;;35.40;20.83;;;;;8.00;100380.00;;;;10314033;28;20255;-73
2023/11/20 19:53:43;;;;;;;33.10;21.37;;;;;8.00;100392.00;;;;10309522;28;20859;-73
2023/11/20 19:58:45;;;;;;;39.17;22.83;;;;;7.90;100390.00;;;;10314445;28;20306;-74
2023/11/20 20:03:50;;;;;;;37.63;22.37;;;;;8.00;100394.00;;;;10311937;28;20697;-73
2023/11/20 20:08:53;;;;;;;43.97;21.47;;;;;7.90;100397.00;;;;10322334;28;20224;-73
2023/11/20 20:13:54;;;;;;;53.27;25.50;;;;;7.90;100402.00;;;;10291994;28;20311;-73
2023/11/20 20:18:55;;;;;;;61.87;25.27;;;;;7.90;100411.00;;;;10294546;28;20228;-73
2023/11/20 20:23:56;;;;;;;85.53;24.70;;;;;7.90;100428.00;;;;10297597;28;20643;-73
2023/11/20 20:29:00;;;;;;;110.60;26.40;;;;;7.80;100416.00;;;;10307986;28;20216;-73
2023/11/20 20:34:01;;;;;;;71.80;27.37;;;;;7.80;100419.00;;;;10320904;28;20282;-73
2023/11/20 20:39:02;;;;;;;89.17;32.27;;;;;7.80;100435.00;;;;10317975;28;20224;-72
2023/11/20 20:44:04;;;;;;;47.60;28.47;;;;;7.80;100431.00;;;;10323850;28;20231;-74
2023/11/20 20:49:06;;;;;;;59.13;33.03;;;;;7.90;100442.00;;;;10313607;28;20244;-74
2023/11/20 20:54:07;;;;;;;97.33;37.83;;;;;7.90;100440.00;;;;10317035;28;20310;-73
2023/11/20 20:59:08;;;;;;;81.10;41.37;;;;;8.00;100454.00;;;;10315337;28;20790;-73
2023/11/20 21:04:13;;;;;;;80.33;40.17;;;;;8.00;100453.00;;;;10316312;28;20978;-73
2023/11/20 21:09:15;;;;;;;88.27;45.63;;;;;8.00;100459.00;;;;10321737;28;20286;-74
2023/11/20 21:14:16;;;;;;;77.47;39.30;;;;;8.00;100461.00;;;;10300819;28;20330;-73
2023/11/20 21:19:17;;;;;;;68.20;38.90;;;;;8.00;100457.00;;;;10311965;28;20662;-73
2023/11/20 21:24:18;;;;;;;65.63;38.60;;;;;8.00;100467.00;;;;10317719;28;20231;-72
2023/11/20 21:29:19;;;;;;;71.93;46.83;;;;;8.10;100472.00;;;;10316801;28;20775;-73
2023/11/20 21:34:20;;;;;;;63.03;37.07;;;;;8.10;100487.00;;;;10298008;28;20262;-73
2023/11/20 21:39:22;;;;;;;59.13;32.37;;;;;8.10;100500.00;;;;10311039;28;20902;-72
2023/11/20 21:44:24;;;;;;;54.27;36.13;;;;;8.10;100496.00;;;;10323296;28;20678;-72
2023/11/20 21:49:25;;;;;;;57.93;35.27;;;;;8.20;100499.00;;;;10311203;28;20578;-72
2023/11/20 21:54:26;;;;;;;61.60;35.40;;;;;8.20;100515.00;;;;10321041;28;20256;-74
2023/11/20 21:59:27;;;;;;;54.07;36.90;;;;;8.20;100519.00;;;;10319430;28;20811;-72
2023/11/20 22:04:31;;;;;;;61.10;37.47;;;;;8.30;100516.00;;;;10314224;28;20230;-72
2023/11/20 22:09:32;;;;;;;64.63;36.20;;;;;8.30;100524.00;;;;10305657;28;20306;-74
2023/11/20 22:14:34;;;;;;;71.73;39.77;;;;;8.40;100524.00;;;;10316070;28;20271;-72
2023/11/20 22:19:35;;;;;;;69.83;38.00;;;;;8.40;100524.00;;;;10311404;28;20297;-72
2023/11/20 22:24:37;;;;;;;76.00;39.13;;;;;8.40;100533.00;;;;10316704;28;20267;-73
2023/11/20 22:29:38;;;;;;;69.17;38.27;;;;;8.40;100535.00;;;;10324143;28;20824;-72
2023/11/20 22:34:40;;;;;;;75.50;37.63;;;;;8.40;100552.00;;;;10331766;28;20227;-75
2023/11/20 22:39:41;;;;;;;71.90;38.07;;;;;8.50;100545.00;;;;10310378;28;20220;-75
2023/11/20 22:44:42;;;;;;;94.47;40.53;;;;;8.50;100560.00;;;;10312642;28;20236;-75
2023/11/20 22:49:44;;;;;;;80.97;38.93;;;;;8.50;100562.00;;;;10310409;28;20748;-75
2023/11/20 22:54:45;;;;;;;93.77;40.30;;;;;8.50;100559.00;;;;10320005;28;20314;-75
2023/11/20 22:59:46;;;;;;;105.07;41.07;;;;;8.50;100561.00;;;;10315146;28;20670;-74
2023/11/20 23:04:48;;;;;;;80.33;37.30;;;;;8.40;100564.00;;;;10313087;28;20227;-75
2023/11/20 23:09:49;;;;;;;81.43;38.03;;;;;8.40;100564.00;;;;10306473;28;20271;-75
2023/11/20 23:14:50;;;;;;;78.60;36.37;;;;;8.30;100571.00;;;;10312254;28;20315;-75
2023/11/20 23:19:51;;;;;;;74.97;36.60;;;;;8.30;100571.00;;;;10323656;28;20223;-75
2023/11/20 23:24:57;;;;;;;83.20;36.90;;;;;8.30;100572.00;;;;10309729;28;20228;-75
2023/11/20 23:30:16;;;;;;;73.87;33.37;;;;;8.30;100579.00;;;;10320307;28;20769;-75
2023/11/20 23:35:18;;;;;;;88.33;33.67;;;;;8.30;100571.00;;;;10312099;28;20232;-74
2023/11/20 23:40:19;;;;;;;94.93;34.83;;;;;8.30;100575.00;;;;10311186;28;20224;-75
2023/11/20 23:45:21;;;;;;;85.00;35.60;;;;;8.30;100568.00;;;;10321137;28;20673;-73
2023/11/20 23:50:24;;;;;;;85.33;33.43;;;;;8.40;100570.00;;;;10325795;28;20314;-73
2023/11/20 23:55:26;;;;;;;80.53;32.70;;;;;8.40;100564.00;;;;10328602;28;20231;-74
